Pedro Velho, Brazil
Current Conditions -  °F | °C
As of 6:00 AM on Saturday 22 Nov 2014 (Local Time) from SBNT Reporting Station
Rain Showers Rain Showers  
Wind Chill: 77°   Ceiling: 8000
Heat Index: 79°   Visibility: 6mi
Dew Point: 70°   Wind: 14mph
Humidity: 78%   Direction: 110°ESE
Pressure: NA   Gusts: NA
Location:  6.44°S, 35.22°W
Report Text: SBNT 220900Z 11012KT 9999 VCSH SCT010 FEW025TCU BKN080 25/21 Q1012
Loading
Personal Weather Stations






























Interactive Weather Map New forecast layout! Learn more

10-Day Weather Forecast

Advertisements
Track Severe Weather on mobile